createdAt,value
2023-05-10T00:00:18.947Z,24.30
2023-05-10T00:02:48.456Z,22.23
2023-05-10T00:05:17.454Z,34.33
2023-05-10T00:07:47.030Z,50.13
2023-05-10T00:10:16.247Z,68.50
2023-05-10T00:12:46.806Z,74.53
2023-05-10T00:15:15.867Z,77.93
2023-05-10T00:17:45.087Z,71.47
2023-05-10T00:20:14.748Z,54.57
2023-05-10T00:22:43.795Z,62.67
2023-05-10T00:25:12.958Z,59.13
2023-05-10T00:27:41.856Z,55.30
2023-05-10T00:30:13.041Z,58.10
2023-05-10T00:32:42.029Z,63.00
2023-05-10T00:35:11.381Z,58.33
2023-05-10T00:37:40.253Z,66.37
2023-05-10T00:40:10.281Z,48.57
2023-05-10T00:42:39.358Z,41.80
2023-05-10T00:45:12.668Z,19.40
2023-05-10T00:47:42.040Z,30.00
2023-05-10T00:50:12.115Z,31.10
2023-05-10T00:52:41.489Z,12.43
2023-05-10T00:55:12.036Z,13.50
2023-05-10T00:57:41.186Z,4.03
2023-05-10T01:00:13.482Z,4.50
2023-05-10T01:02:43.993Z,3.00
2023-05-10T01:05:13.304Z,2.27
2023-05-10T01:07:42.226Z,2.30
2023-05-10T01:10:12.993Z,2.43
2023-05-10T01:12:45.174Z,2.10
2023-05-10T01:15:17.385Z,2.40
2023-05-10T01:17:49.793Z,2.67
2023-05-10T01:20:45.808Z,2.30
2023-05-10T01:23:38.376Z,2.83
2023-05-10T01:26:38.534Z,3.37
2023-05-10T01:29:26.332Z,4.20
2023-05-10T01:32:18.537Z,2.40
2023-05-10T01:34:56.046Z,3.27
2023-05-10T01:37:31.609Z,3.10
2023-05-10T01:40:05.414Z,2.27
2023-05-10T01:42:42.943Z,2.57
2023-05-10T01:45:19.132Z,2.27
2023-05-10T01:47:53.679Z,2.13
2023-05-10T01:50:29.977Z,2.20
2023-05-10T01:53:01.769Z,2.20
2023-05-10T01:55:34.618Z,2.23
2023-05-10T01:58:06.952Z,2.37
2023-05-10T02:00:36.984Z,3.77
2023-05-10T02:03:11.310Z,3.53
2023-05-10T02:05:41.398Z,4.63
2023-05-10T02:08:11.417Z,3.67
2023-05-10T02:10:41.831Z,3.53
2023-05-10T02:13:12.765Z,3.03
2023-05-10T02:15:44.006Z,2.50
2023-05-10T02:18:17.773Z,2.50
2023-05-10T02:20:48.938Z,2.37
2023-05-10T02:23:19.864Z,2.20
2023-05-10T02:25:52.440Z,2.20
2023-05-10T02:28:24.706Z,2.27
2023-05-10T02:30:54.742Z,2.00
2023-05-10T02:33:25.827Z,2.20
2023-05-10T02:35:55.803Z,2.10
2023-05-10T02:38:26.639Z,2.40
2023-05-10T02:40:56.248Z,2.20
2023-05-10T02:43:26.981Z,2.20
2023-05-10T02:45:56.069Z,2.43
2023-05-10T02:48:26.684Z,2.30
2023-05-10T02:51:00.112Z,2.60
2023-05-10T02:53:36.635Z,2.90
2023-05-10T02:56:12.258Z,3.13
2023-05-10T02:58:41.533Z,3.47
2023-05-10T03:01:10.639Z,6.43
2023-05-10T03:03:43.515Z,4.50
2023-05-10T03:06:12.806Z,3.97
2023-05-10T03:08:41.878Z,3.20
2023-05-10T03:11:32.071Z,3.70
2023-05-10T03:14:19.066Z,3.10
2023-05-10T03:16:51.693Z,3.10
2023-05-10T03:19:39.061Z,2.97
2023-05-10T03:22:15.533Z,2.97
2023-05-10T03:24:45.762Z,2.80
2023-05-10T03:27:15.918Z,2.83
2023-05-10T03:29:47.626Z,2.40
2023-05-10T03:32:17.695Z,3.30
2023-05-10T03:34:49.145Z,2.97
2023-05-10T03:37:18.409Z,3.10
2023-05-10T03:39:47.817Z,3.10
2023-05-10T03:42:19.076Z,2.70
2023-05-10T03:44:53.894Z,2.70
2023-05-10T03:47:23.035Z,2.30
2023-05-10T03:49:53.445Z,2.60
2023-05-10T03:52:22.378Z,2.93
2023-05-10T03:54:51.591Z,2.60
2023-05-10T03:57:20.874Z,2.30
2023-05-10T03:59:49.674Z,2.00
2023-05-10T04:02:19.601Z,2.17
2023-05-10T04:04:49.386Z,2.40
2023-05-10T04:07:20.294Z,2.40
2023-05-10T04:09:49.873Z,2.10
2023-05-10T04:12:18.953Z,2.30
2023-05-10T04:14:47.832Z,2.73
2023-05-10T04:17:16.901Z,2.10
2023-05-10T04:19:45.926Z,2.27
2023-05-10T04:22:14.862Z,2.20
2023-05-10T04:24:45.195Z,2.27
2023-05-10T04:27:14.311Z,2.30
2023-05-10T04:29:43.220Z,2.10
2023-05-10T04:32:12.469Z,2.40
2023-05-10T04:34:41.542Z,2.30
2023-05-10T04:37:10.423Z,2.40
2023-05-10T04:39:40.969Z,2.10
2023-05-10T04:42:31.287Z,2.30
2023-05-10T04:45:00.455Z,2.10
2023-05-10T04:47:29.506Z,1.97
2023-05-10T04:49:58.660Z,1.93
2023-05-10T04:52:27.592Z,2.50
2023-05-10T04:54:57.109Z,2.60
2023-05-10T04:57:26.021Z,1.97
2023-05-10T04:59:56.748Z,2.00
2023-05-10T05:02:26.155Z,1.93
2023-05-10T05:04:55.020Z,2.00
2023-05-10T05:07:24.310Z,2.40
2023-05-10T05:09:53.223Z,1.93
2023-05-10T05:12:22.128Z,2.73
2023-05-10T05:14:51.113Z,2.90
2023-05-10T05:17:21.459Z,2.50
2023-05-10T05:19:50.427Z,2.10
2023-05-10T05:22:20.561Z,3.30
2023-05-10T05:24:49.587Z,3.10
2023-05-10T05:27:25.368Z,2.30
2023-05-10T05:29:55.688Z,2.20
2023-05-10T05:32:26.409Z,2.77
2023-05-10T05:34:55.477Z,4.03
2023-05-10T05:37:25.628Z,2.27
2023-05-10T05:39:55.658Z,2.17
2023-05-10T05:42:43.640Z,2.30
2023-05-10T05:45:14.538Z,2.57
2023-05-10T05:47:45.327Z,1.77
2023-05-10T05:50:14.399Z,2.73
2023-05-10T05:52:43.279Z,2.23
2023-05-10T05:55:13.016Z,2.30
2023-05-10T05:57:41.936Z,1.90
2023-05-10T06:00:11.649Z,2.40
2023-05-10T06:02:45.254Z,2.60
2023-05-10T06:05:15.357Z,2.40
2023-05-10T06:07:44.567Z,1.87
2023-05-10T06:10:13.765Z,2.40
2023-05-10T06:12:42.984Z,3.10
2023-05-10T06:15:15.281Z,4.50
2023-05-10T06:17:45.913Z,2.27
2023-05-10T06:20:15.970Z,8.67
2023-05-10T06:22:45.202Z,3.00
2023-05-10T06:25:15.527Z,4.70
2023-05-10T06:27:48.030Z,3.00
2023-05-10T06:30:18.971Z,3.70
2023-05-10T06:32:49.313Z,16.77
2023-05-10T06:35:18.765Z,9.47
2023-05-10T06:37:48.778Z,32.83
2023-05-10T06:40:18.307Z,17.00
2023-05-10T06:42:47.529Z,12.50
2023-05-10T06:45:17.127Z,10.80
2023-05-10T06:47:47.076Z,14.50
2023-05-10T06:50:17.797Z,9.13
2023-05-10T06:52:46.778Z,20.80
2023-05-10T06:55:16.097Z,23.83
2023-05-10T06:57:45.146Z,11.67
2023-05-10T07:00:15.775Z,13.97
2023-05-10T07:02:45.729Z,9.43
2023-05-10T07:05:15.460Z,7.37
2023-05-10T07:07:45.870Z,16.53
2023-05-10T07:10:19.333Z,10.20
2023-05-10T07:12:48.529Z,18.23
2023-05-10T07:15:18.441Z,15.67
2023-05-10T07:17:47.973Z,20.60
2023-05-10T07:20:17.072Z,13.23
2023-05-10T07:22:47.376Z,12.00
2023-05-10T07:25:16.444Z,8.57
2023-05-10T07:27:45.666Z,6.60
2023-05-10T07:30:16.325Z,5.70
2023-05-10T07:32:45.506Z,13.27
2023-05-10T07:35:14.719Z,17.07
2023-05-10T07:37:43.815Z,5.27
2023-05-10T07:40:14.582Z,6.43
2023-05-10T07:42:43.480Z,2.80
2023-05-10T07:45:12.691Z,3.83
2023-05-10T07:47:41.724Z,2.67
2023-05-10T07:50:11.291Z,3.27
2023-05-10T07:52:40.375Z,3.03
2023-05-10T07:55:10.451Z,3.47
2023-05-10T07:57:41.242Z,4.17
2023-05-10T08:00:11.254Z,3.30
2023-05-10T08:02:43.892Z,4.10
2023-05-10T08:05:13.159Z,12.77
2023-05-10T08:07:42.119Z,18.40
2023-05-10T08:10:12.689Z,4.53
2023-05-10T08:12:43.128Z,5.10
2023-05-10T08:15:13.204Z,40.73
2023-05-10T08:17:42.301Z,39.43
2023-05-10T08:20:14.059Z,11.77
2023-05-10T08:22:43.068Z,11.60
2023-05-10T08:25:12.190Z,18.20
2023-05-10T08:27:42.583Z,16.63
2023-05-10T08:30:13.226Z,12.37
2023-05-10T08:32:42.401Z,44.70
2023-05-10T08:35:11.543Z,8.17
2023-05-10T08:37:40.434Z,3.73
2023-05-10T08:40:11.929Z,4.80
2023-05-10T08:42:47.731Z,3.90
2023-05-10T08:45:18.233Z,3.70
2023-05-10T08:47:48.199Z,6.80
2023-05-10T08:50:19.023Z,10.67
2023-05-10T08:52:50.434Z,17.57
2023-05-10T08:55:19.632Z,47.70
2023-05-10T08:57:50.134Z,26.40
2023-05-10T09:00:20.857Z,11.63
2023-05-10T09:02:52.117Z,43.80
2023-05-10T09:05:21.249Z,39.13
2023-05-10T09:07:50.258Z,24.90
2023-05-10T09:10:19.460Z,28.47
2023-05-10T09:12:50.382Z,35.77
2023-05-10T09:15:21.529Z,11.10
2023-05-10T09:17:52.300Z,20.83
2023-05-10T09:20:21.741Z,36.57
2023-05-10T09:22:50.854Z,16.57
2023-05-10T09:25:19.944Z,5.17
2023-05-10T09:27:51.166Z,4.97
2023-05-10T09:30:26.163Z,9.20
2023-05-10T09:32:55.679Z,16.07
2023-05-10T09:35:29.339Z,14.67
2023-05-10T09:38:07.539Z,17.57
2023-05-10T09:40:36.476Z,12.63
2023-05-10T09:43:09.729Z,18.93
2023-05-10T09:45:39.420Z,31.90
2023-05-10T09:48:09.230Z,18.97
2023-05-10T09:50:38.262Z,14.43
2023-05-10T09:53:07.921Z,14.73
2023-05-10T09:55:47.238Z,15.33
2023-05-10T09:58:17.968Z,14.87
2023-05-10T10:00:49.092Z,13.33
2023-05-10T10:03:20.100Z,12.73
2023-05-10T10:05:50.188Z,16.33
2023-05-10T10:08:19.899Z,18.43
2023-05-10T10:10:51.618Z,17.13
2023-05-10T10:13:22.153Z,13.87
2023-05-10T10:15:52.470Z,15.87
2023-05-10T10:18:24.986Z,10.70
2023-05-10T10:20:54.815Z,12.20
2023-05-10T10:23:24.712Z,15.43
2023-05-10T10:25:55.434Z,12.20
2023-05-10T10:28:43.891Z,12.80
2023-05-10T10:31:25.957Z,9.67
2023-05-10T10:34:03.074Z,9.50
2023-05-10T10:36:34.446Z,18.80
2023-05-10T10:39:05.307Z,8.90
2023-05-10T10:41:36.097Z,10.37
2023-05-10T10:44:28.898Z,7.90
2023-05-10T10:47:10.405Z,8.20
2023-05-10T10:49:50.813Z,7.50
2023-05-10T10:52:27.997Z,7.60
2023-05-10T10:55:19.472Z,8.07
2023-05-10T10:57:50.931Z,7.60
2023-05-10T11:00:30.334Z,8.33
2023-05-10T11:03:01.283Z,8.27
2023-05-10T11:05:48.679Z,6.80
2023-05-10T11:08:21.011Z,6.80
2023-05-10T11:11:09.178Z,8.07
2023-05-10T11:13:50.082Z,14.07
2023-05-10T11:16:24.858Z,11.30
2023-05-10T11:19:03.080Z,10.17
2023-05-10T11:21:55.304Z,8.10
2023-05-10T11:24:29.888Z,10.50
2023-05-10T11:26:59.744Z,8.03
2023-05-10T11:29:28.841Z,7.40
2023-05-10T11:32:01.762Z,8.73
2023-05-10T11:34:34.880Z,8.20
2023-05-10T11:37:04.617Z,8.53
2023-05-10T11:39:34.749Z,8.30
2023-05-10T11:42:03.743Z,8.60
2023-05-10T11:44:33.439Z,9.87
2023-05-10T11:47:04.627Z,9.60
2023-05-10T11:49:33.744Z,11.10
2023-05-10T11:52:08.024Z,8.90
2023-05-10T11:54:37.244Z,9.00
2023-05-10T11:57:06.515Z,9.07
2023-05-10T11:59:35.484Z,9.37
2023-05-10T12:02:06.132Z,11.30
2023-05-10T12:04:35.469Z,10.70
2023-05-10T12:07:04.421Z,9.37
2023-05-10T12:09:43.171Z,9.70
2023-05-10T12:12:12.578Z,9.70
2023-05-10T12:14:41.563Z,10.70
2023-05-10T12:17:15.803Z,9.53
2023-05-10T12:19:45.079Z,8.50
2023-05-10T12:22:13.995Z,8.60
2023-05-10T12:24:42.916Z,7.90
2023-05-10T12:27:13.585Z,7.80
2023-05-10T12:29:46.265Z,8.23
2023-05-10T12:32:16.632Z,7.23
2023-05-10T12:34:49.064Z,6.97
2023-05-10T12:37:18.062Z,7.80
2023-05-10T12:39:48.298Z,7.10
2023-05-10T12:42:17.239Z,7.40
2023-05-10T12:44:46.044Z,7.60
2023-05-10T12:47:16.235Z,8.90
2023-05-10T12:49:45.252Z,7.40
2023-05-10T12:52:14.173Z,7.73
2023-05-10T12:54:43.025Z,9.87
2023-05-10T12:57:13.911Z,7.23
2023-05-10T12:59:42.873Z,6.87
2023-05-10T13:02:12.039Z,8.17
2023-05-10T13:04:43.040Z,11.00
2023-05-10T13:07:12.272Z,36.07
2023-05-10T13:09:41.195Z,26.13
2023-05-10T13:12:10.384Z,37.87
2023-05-10T13:14:41.495Z,54.13
2023-05-10T13:17:10.711Z,83.23
2023-05-10T13:19:39.557Z,46.83
2023-05-10T13:22:10.083Z,33.17
2023-05-10T13:24:39.013Z,19.30
2023-05-10T13:27:07.891Z,54.20
2023-05-10T13:29:36.847Z,75.63
2023-05-10T13:32:05.993Z,77.67
2023-05-10T13:34:36.816Z,104.70
2023-05-10T13:37:05.770Z,83.00
2023-05-10T13:39:37.484Z,22.37
2023-05-10T13:42:07.874Z,12.67
2023-05-10T13:44:37.319Z,7.63
2023-05-10T13:47:06.117Z,7.50
2023-05-10T13:49:35.157Z,7.07
2023-05-10T13:52:08.071Z,7.67
2023-05-10T13:54:39.166Z,6.83
2023-05-10T13:57:08.932Z,7.07
2023-05-10T13:59:38.537Z,7.67
2023-05-10T14:02:07.530Z,6.60
2023-05-10T14:04:36.785Z,5.70
2023-05-10T14:07:05.664Z,7.70
2023-05-10T14:09:34.567Z,9.13
2023-05-10T14:12:05.133Z,8.67
2023-05-10T14:14:34.435Z,9.53
2023-05-10T14:17:03.457Z,6.47
2023-05-10T14:19:33.688Z,5.13
2023-05-10T14:22:02.547Z,6.00
2023-05-10T14:24:31.417Z,5.40
2023-05-10T14:27:00.189Z,5.70
2023-05-10T14:29:30.718Z,7.10
2023-05-10T14:31:59.734Z,6.23
2023-05-10T14:34:28.609Z,8.93
2023-05-10T14:36:57.740Z,9.63
2023-05-10T14:39:26.873Z,7.10
2023-05-10T14:41:55.683Z,8.47
2023-05-10T14:44:24.990Z,7.30
2023-05-10T14:46:55.333Z,5.60
2023-05-10T14:49:26.910Z,7.50
2023-05-10T14:51:57.035Z,6.40
2023-05-10T14:54:26.050Z,6.30
2023-05-10T14:56:54.988Z,7.90
2023-05-10T14:59:23.870Z,11.10
2023-05-10T15:01:55.302Z,9.97
2023-05-10T15:04:27.063Z,7.50
2023-05-10T15:07:00.391Z,6.80
2023-05-10T15:09:29.643Z,7.33
2023-05-10T15:11:58.937Z,7.30
2023-05-10T15:14:27.906Z,7.73
2023-05-10T15:16:59.641Z,5.90
2023-05-10T15:19:30.149Z,6.20
2023-05-10T15:21:59.251Z,6.00
2023-05-10T15:24:28.615Z,5.40
2023-05-10T15:26:57.537Z,6.33
2023-05-10T15:29:26.828Z,7.80
2023-05-10T15:31:55.762Z,9.60
2023-05-10T15:34:26.247Z,7.53
2023-05-10T15:37:09.371Z,6.63
2023-05-10T15:39:40.038Z,7.60
2023-05-10T15:42:09.248Z,6.50
2023-05-10T15:44:39.528Z,7.13
2023-05-10T15:47:08.527Z,6.87
2023-05-10T15:49:39.046Z,6.83
2023-05-10T15:52:08.095Z,6.77
2023-05-10T15:54:36.960Z,5.37
2023-05-10T15:57:06.025Z,5.50
2023-05-10T15:59:36.010Z,10.40
2023-05-10T16:02:05.269Z,6.57
2023-05-10T16:04:34.323Z,6.20
2023-05-10T16:07:05.066Z,4.40
2023-05-10T16:09:34.118Z,3.83
2023-05-10T16:12:05.467Z,3.40
2023-05-10T16:14:34.626Z,3.20
2023-05-10T16:17:05.179Z,11.90
2023-05-10T16:19:34.355Z,5.87
2023-05-10T16:22:07.911Z,4.80
2023-05-10T16:24:36.989Z,10.63
2023-05-10T16:27:06.337Z,3.83
2023-05-10T16:29:35.266Z,5.40
2023-05-10T16:32:04.233Z,4.40
2023-05-10T16:34:33.088Z,3.53
2023-05-10T16:37:03.455Z,3.00
2023-05-10T16:39:32.538Z,2.70
2023-05-10T16:42:01.322Z,3.10
2023-05-10T16:44:30.416Z,7.23
2023-05-10T16:46:59.384Z,6.53
2023-05-10T16:49:28.217Z,4.67
2023-05-10T16:51:57.059Z,5.27
2023-05-10T16:54:27.649Z,4.07
2023-05-10T16:56:56.635Z,6.37
2023-05-10T16:59:25.778Z,6.00
2023-05-10T17:01:54.832Z,4.27
2023-05-10T17:04:23.678Z,13.40
2023-05-10T17:06:52.645Z,11.33
2023-05-10T17:09:21.631Z,8.17
2023-05-10T17:11:51.888Z,7.27
2023-05-10T17:14:20.775Z,7.60
2023-05-10T17:16:52.857Z,4.90
2023-05-10T17:19:23.644Z,13.10
2023-05-10T17:21:54.613Z,21.57
2023-05-10T17:24:23.677Z,12.07
2023-05-10T17:26:54.083Z,9.40
2023-05-10T17:29:23.112Z,8.93
2023-05-10T17:31:52.039Z,6.63
2023-05-10T17:34:21.928Z,12.87
2023-05-10T17:36:50.941Z,8.40
2023-05-10T17:39:19.835Z,20.33
2023-05-10T17:41:48.780Z,18.57
2023-05-10T17:44:19.805Z,20.77
2023-05-10T17:46:49.232Z,24.53
2023-05-10T17:49:18.238Z,18.50
2023-05-10T17:51:49.106Z,17.67
2023-05-10T17:54:18.248Z,13.80
2023-05-10T17:56:47.651Z,13.30
2023-05-10T17:59:16.603Z,4.53
2023-05-10T18:01:47.306Z,4.27
2023-05-10T18:04:16.774Z,5.90
2023-05-10T18:06:45.660Z,6.40
2023-05-10T18:09:16.530Z,6.73
2023-05-10T18:11:45.560Z,14.73
2023-05-10T18:14:14.618Z,10.50
2023-05-10T18:16:48.506Z,12.40
2023-05-10T18:19:17.516Z,9.03
2023-05-10T18:21:46.419Z,21.90
2023-05-10T18:24:16.832Z,16.13
2023-05-10T18:26:49.318Z,29.07
2023-05-10T18:29:18.332Z,47.57
2023-05-10T18:31:48.677Z,37.20
2023-05-10T18:34:17.746Z,34.47
2023-05-10T18:36:46.706Z,42.40
2023-05-10T18:39:18.124Z,26.60
2023-05-10T18:41:47.203Z,12.63
2023-05-10T18:44:15.993Z,9.87
2023-05-10T18:46:45.193Z,5.73
2023-05-10T18:49:39.796Z,6.63
2023-05-10T18:52:11.897Z,5.67
2023-05-10T18:54:40.850Z,5.50
2023-05-10T18:57:11.047Z,5.10
2023-05-10T18:59:40.429Z,4.93
2023-05-10T19:02:09.971Z,4.37
2023-05-10T19:04:40.992Z,5.20
2023-05-10T19:07:10.149Z,6.37
2023-05-10T19:09:39.670Z,6.90
2023-05-10T19:12:09.569Z,5.90
2023-05-10T19:14:38.832Z,7.40
2023-05-10T19:17:08.922Z,6.33
2023-05-10T19:19:40.193Z,7.77
2023-05-10T19:22:11.282Z,8.70
2023-05-10T19:24:40.844Z,8.73
2023-05-10T19:27:10.096Z,7.20
2023-05-10T19:29:39.150Z,6.80
2023-05-10T19:32:08.180Z,4.63
2023-05-10T19:34:37.129Z,11.33
2023-05-10T19:37:07.594Z,13.63
2023-05-10T19:39:37.219Z,16.63
2023-05-10T19:42:07.223Z,9.43
2023-05-10T19:44:38.111Z,6.90
2023-05-10T19:47:09.637Z,7.27
2023-05-10T19:49:39.413Z,7.00
2023-05-10T19:52:11.986Z,6.70
2023-05-10T19:54:40.895Z,6.70
2023-05-10T19:57:11.337Z,8.03
2023-05-10T19:59:41.353Z,9.63
2023-05-10T20:02:10.360Z,9.87
2023-05-10T20:04:39.258Z,11.03
2023-05-10T20:07:09.841Z,12.30
2023-05-10T20:09:45.256Z,10.87
2023-05-10T20:12:15.243Z,11.10
2023-05-10T20:14:49.902Z,9.63
2023-05-10T20:17:37.883Z,11.97
2023-05-10T20:20:07.887Z,10.67
2023-05-10T20:22:38.298Z,11.73
2023-05-10T20:25:08.755Z,15.00
2023-05-10T20:27:38.031Z,16.60
2023-05-10T20:30:08.504Z,19.20
2023-05-10T20:32:37.840Z,40.43
2023-05-10T20:35:10.381Z,43.47
2023-05-10T20:37:41.142Z,48.30
2023-05-10T20:40:11.305Z,21.60
2023-05-10T20:42:40.246Z,44.23
2023-05-10T20:45:10.454Z,34.83
2023-05-10T20:47:39.338Z,24.10
2023-05-10T20:50:09.426Z,24.90
2023-05-10T20:52:39.813Z,27.67
2023-05-10T20:55:09.728Z,21.33
2023-05-10T20:57:38.819Z,44.30
2023-05-10T21:00:11.290Z,70.00
2023-05-10T21:02:40.202Z,48.93
2023-05-10T21:05:09.945Z,25.60
2023-05-10T21:07:40.832Z,35.50
2023-05-10T21:10:12.105Z,47.97
2023-05-10T21:12:41.220Z,48.50
2023-05-10T21:15:11.103Z,21.03
2023-05-10T21:17:40.022Z,26.37
2023-05-10T21:20:10.299Z,34.07
2023-05-10T21:22:40.756Z,43.77
2023-05-10T21:25:10.456Z,33.90
2023-05-10T21:27:39.726Z,18.97
2023-05-10T21:30:09.972Z,14.53
2023-05-10T21:32:38.918Z,30.20
2023-05-10T21:35:09.066Z,43.93
2023-05-10T21:37:40.170Z,62.57
2023-05-10T21:40:09.992Z,47.00
2023-05-10T21:42:39.843Z,21.53
2023-05-10T21:45:10.436Z,15.37
2023-05-10T21:47:39.654Z,16.90
2023-05-10T21:50:10.533Z,13.70
2023-05-10T21:52:41.271Z,19.97
2023-05-10T21:55:11.195Z,14.90
2023-05-10T21:57:41.534Z,15.77
2023-05-10T22:00:11.667Z,16.73
2023-05-10T22:02:41.467Z,15.13
2023-05-10T22:05:11.285Z,23.60
2023-05-10T22:07:47.478Z,35.67
2023-05-10T22:10:17.199Z,51.07
2023-05-10T22:12:48.522Z,83.23
2023-05-10T22:15:18.023Z,98.17
2023-05-10T22:17:49.683Z,96.63
2023-05-10T22:20:19.214Z,65.40
2023-05-10T22:22:49.796Z,60.67
2023-05-10T22:25:18.797Z,55.50
2023-05-10T22:27:47.789Z,29.93
2023-05-10T22:30:17.527Z,69.60
2023-05-10T22:32:46.804Z,72.47
2023-05-10T22:35:34.203Z,72.40
2023-05-10T22:38:04.525Z,54.93
2023-05-10T22:40:33.460Z,63.00
2023-05-10T22:43:02.474Z,93.77
2023-05-10T22:45:31.429Z,76.43
2023-05-10T22:48:01.121Z,70.50
2023-05-10T22:50:32.261Z,75.87
2023-05-10T22:53:03.640Z,66.10
2023-05-10T22:55:34.234Z,59.17
2023-05-10T22:58:03.328Z,85.33
2023-05-10T23:00:32.236Z,98.27
2023-05-10T23:03:01.432Z,85.13
2023-05-10T23:05:30.439Z,42.50
2023-05-10T23:07:59.289Z,60.83
2023-05-10T23:10:28.262Z,81.23
2023-05-10T23:12:58.664Z,94.53
2023-05-10T23:15:27.583Z,82.20
2023-05-10T23:17:56.856Z,61.17
2023-05-10T23:20:25.796Z,71.70
2023-05-10T23:22:54.746Z,62.40
2023-05-10T23:25:23.663Z,50.97
2023-05-10T23:27:52.821Z,57.83
2023-05-10T23:30:23.288Z,46.67
2023-05-10T23:32:52.223Z,88.00
2023-05-10T23:35:21.482Z,70.07
2023-05-10T23:37:50.501Z,77.57
2023-05-10T23:40:19.657Z,39.43
2023-05-10T23:42:49.236Z,74.90
2023-05-10T23:45:18.431Z,115.90
2023-05-10T23:47:48.800Z,85.53
2023-05-10T23:50:18.129Z,53.27
2023-05-10T23:52:47.236Z,73.57
2023-05-10T23:55:16.616Z,72.33
2023-05-10T23:57:45.613Z,63.37
